createdAt,value
2022-07-28T00:00:17.231Z,100510.63
2022-07-28T00:01:20.325Z,100514.55
2022-07-28T00:02:23.517Z,100511.22
2022-07-28T00:03:26.707Z,100514.83
2022-07-28T00:04:30.089Z,100514.28
2022-07-28T00:05:33.094Z,100520.97
2022-07-28T00:06:37.877Z,100517.37
2022-07-28T00:07:40.866Z,100516.53
2022-07-28T00:08:43.843Z,100516.53
2022-07-28T00:09:47.014Z,100514.59
2022-07-28T00:10:50.088Z,100511.81
2022-07-28T00:11:54.968Z,100513.45
2022-07-28T00:12:59.299Z,100517.37
2022-07-28T00:14:02.398Z,100515.70
2022-07-28T00:15:06.758Z,100507.66
2022-07-28T00:16:10.484Z,100503.22
2022-07-28T00:17:13.625Z,100510.20
2022-07-28T00:18:17.045Z,100515.75
2022-07-28T00:19:20.124Z,100510.48
2022-07-28T00:20:23.527Z,100502.44
2022-07-28T00:21:26.496Z,100513.25
2022-07-28T00:22:29.365Z,100508.81
2022-07-28T00:23:35.873Z,100504.92
2022-07-28T00:24:37.410Z,100506.88
2022-07-28T00:25:40.574Z,100512.42
2022-07-28T00:26:46.355Z,100506.88
2022-07-28T00:27:48.355Z,100511.31
2022-07-28T00:28:51.423Z,100506.88
2022-07-28T00:29:54.490Z,100509.65
2022-07-28T00:30:57.509Z,100509.09
2022-07-28T00:32:02.583Z,100508.58
2022-07-28T00:33:05.608Z,100505.25
2022-07-28T00:34:08.766Z,100506.67
2022-07-28T00:35:12.037Z,100508.90
2022-07-28T00:36:15.837Z,100514.73
2022-07-28T00:37:19.131Z,100501.45
2022-07-28T00:38:22.173Z,100506.16
2022-07-28T00:39:26.465Z,100510.05
2022-07-28T00:40:49.766Z,100517.83
2022-07-28T00:41:52.756Z,100513.42
2022-07-28T00:42:55.736Z,100522.85
2022-07-28T00:43:58.718Z,100526.73
2022-07-28T00:45:01.573Z,100520.36
2022-07-28T00:46:04.971Z,100517.58
2022-07-28T00:47:07.987Z,100520.63
2022-07-28T00:48:11.071Z,100527.84
2022-07-28T00:49:15.469Z,100520.94
2022-07-28T00:50:20.277Z,100520.94
2022-07-28T00:51:26.204Z,100523.72
2022-07-28T00:52:29.402Z,100525.66
2022-07-28T00:53:32.423Z,100525.11
2022-07-28T00:54:36.244Z,100524.00
2022-07-28T00:56:05.337Z,100520.67
2022-07-28T00:56:45.866Z,100522.61
2022-07-28T00:57:48.841Z,100520.98
2022-07-28T00:58:52.263Z,100524.03
2022-07-28T00:59:55.576Z,100525.14
2022-07-28T01:00:58.762Z,100523.48
2022-07-28T01:02:02.945Z,100532.63
2022-07-28T01:03:06.646Z,100533.47
2022-07-28T01:04:09.742Z,100536.23
2022-07-28T01:05:14.383Z,100533.47
2022-07-28T01:06:45.253Z,100526.80
2022-07-28T01:08:12.837Z,100531.24
2022-07-28T01:09:26.188Z,100525.70
2022-07-28T01:10:46.337Z,100526.53
2022-07-28T01:12:12.479Z,100534.30
2022-07-28T01:13:35.716Z,100520.98
2022-07-28T01:14:50.013Z,100529.06
2022-07-28T01:16:05.386Z,100531.59
2022-07-28T01:17:17.876Z,100519.66
2022-07-28T01:18:24.542Z,100527.98
2022-07-28T01:19:53.632Z,100525.49
2022-07-28T01:21:13.063Z,100525.49
2022-07-28T01:22:19.693Z,100527.74
2022-07-28T01:23:35.281Z,100529.13
2022-07-28T01:24:44.845Z,100522.72
2022-07-28T01:26:20.507Z,100526.36
2022-07-28T01:27:43.360Z,100531.63
2022-07-28T01:29:04.337Z,100526.91
2022-07-28T01:30:27.701Z,100540.47
2022-07-28T01:31:40.463Z,100538.00
2022-07-28T01:32:47.167Z,100543.82
2022-07-28T01:33:59.090Z,100539.63
2022-07-28T01:35:11.500Z,100544.66
2022-07-28T01:36:18.607Z,100544.92
2022-07-28T01:37:28.066Z,100544.09
2022-07-28T01:38:34.450Z,100542.43
2022-07-28T01:39:40.788Z,100545.20
2022-07-28T01:40:45.996Z,100542.74
2022-07-28T01:41:52.876Z,100544.68
2022-07-28T01:42:59.613Z,100548.56
2022-07-28T01:44:08.889Z,100545.79
2022-07-28T01:45:13.588Z,100546.90
2022-07-28T01:46:20.220Z,100557.98
2022-07-28T01:47:25.191Z,100557.98
2022-07-28T01:48:29.407Z,100550.50
2022-07-28T01:49:33.313Z,100548.84
2022-07-28T01:50:37.645Z,100547.73
2022-07-28T01:51:42.257Z,100550.78
2022-07-28T01:52:48.159Z,100553.03
2022-07-28T01:53:53.695Z,100554.66
2022-07-28T01:54:58.790Z,100553.03
2022-07-28T01:56:04.666Z,100549.42
2022-07-28T01:57:12.354Z,100550.53
2022-07-28T01:58:18.191Z,100551.64
2022-07-28T01:59:24.380Z,100550.80
2022-07-28T02:01:36.042Z,100556.93
2022-07-28T02:02:43.081Z,100556.38
2022-07-28T02:03:47.473Z,100549.16
2022-07-28T02:04:52.287Z,100555.81
2022-07-28T02:05:56.757Z,100560.52
2022-07-28T02:07:02.341Z,100565.27
2022-07-28T02:08:06.688Z,100563.30
2022-07-28T02:09:10.477Z,100569.15
2022-07-28T02:10:17.372Z,100570.81
2022-07-28T02:11:39.396Z,100572.45
2022-07-28T02:12:45.843Z,100569.40
2022-07-28T02:13:51.647Z,100572.17
2022-07-28T02:14:56.186Z,100563.86
2022-07-28T02:16:00.405Z,100564.69
2022-07-28T02:17:07.465Z,100570.23
2022-07-28T02:18:11.259Z,100566.36
2022-07-28T02:19:18.036Z,100571.90
2022-07-28T02:20:22.461Z,100569.13
2022-07-28T02:21:29.460Z,100568.02
2022-07-28T02:22:34.257Z,100577.69
2022-07-28T02:23:38.794Z,100574.64
2022-07-28T02:24:44.517Z,100581.02
2022-07-28T02:25:49.401Z,100576.00
2022-07-28T02:26:58.963Z,100575.73
2022-07-28T02:28:05.534Z,100577.39
2022-07-28T02:29:27.368Z,100581.00
2022-07-28T02:30:37.518Z,100579.89
2022-07-28T02:33:00.890Z,100583.72
2022-07-28T02:34:08.142Z,100586.54
2022-07-28T02:35:23.895Z,100584.05
2022-07-28T02:36:30.647Z,100585.71
2022-07-28T02:37:37.733Z,100580.44
2022-07-28T02:38:44.091Z,100597.91
2022-07-28T02:39:55.296Z,100597.91
2022-07-28T02:41:00.377Z,100591.53
2022-07-28T02:42:15.971Z,100589.31
2022-07-28T02:43:22.971Z,100608.45
2022-07-28T02:44:30.053Z,100604.84
2022-07-28T02:45:35.546Z,100594.86
2022-07-28T02:46:42.671Z,100588.48
2022-07-28T02:47:49.691Z,100591.53
2022-07-28T02:48:56.227Z,100585.15
2022-07-28T02:50:02.457Z,100594.88
2022-07-28T02:51:08.189Z,100600.42
2022-07-28T02:52:13.285Z,100607.91
2022-07-28T02:53:17.009Z,100604.30
2022-07-28T02:54:20.701Z,100605.41
2022-07-28T02:55:25.109Z,100604.58
2022-07-28T02:56:30.039Z,100601.81
2022-07-28T02:57:34.168Z,100608.19
2022-07-28T02:58:37.901Z,100604.58
2022-07-28T02:59:42.288Z,100613.73
2022-07-28T03:00:46.986Z,100615.12
2022-07-28T03:01:50.630Z,100604.03
2022-07-28T03:02:55.936Z,100604.56
2022-07-28T03:03:59.640Z,100599.02
2022-07-28T03:05:07.574Z,100597.63
2022-07-28T03:06:09.947Z,100608.72
2022-07-28T03:07:13.014Z,100600.41
2022-07-28T03:08:19.017Z,100596.52
2022-07-28T03:09:22.013Z,100596.52
2022-07-28T03:10:34.179Z,100598.19
2022-07-28T03:11:32.407Z,100598.98
2022-07-28T03:12:35.528Z,100607.03
2022-07-28T03:13:38.884Z,100597.61
2022-07-28T03:14:42.272Z,100596.50
2022-07-28T03:15:45.143Z,100598.16
2022-07-28T03:16:51.119Z,100596.22
2022-07-28T03:17:53.112Z,100595.67
2022-07-28T03:18:56.075Z,100607.32
2022-07-28T03:19:59.180Z,100603.41
2022-07-28T03:21:02.271Z,100607.02
2022-07-28T03:22:06.038Z,100602.03
2022-07-28T03:23:10.911Z,100603.41
2022-07-28T03:24:14.343Z,100599.50
2022-07-28T03:25:21.236Z,100598.39
2022-07-28T03:26:37.018Z,100595.63
2022-07-28T03:27:43.216Z,100599.22
2022-07-28T03:28:48.353Z,100608.38
2022-07-28T03:30:04.483Z,100607.27
2022-07-28T03:31:10.876Z,100607.27
2022-07-28T03:32:14.096Z,100605.60
2022-07-28T03:33:18.072Z,100609.21
2022-07-28T03:34:21.171Z,100609.21
2022-07-28T03:35:25.008Z,100615.59
2022-07-28T03:36:32.662Z,100618.05
2022-07-28T03:37:41.888Z,100612.51
2022-07-28T03:40:09.000Z,100618.00
2022-07-28T03:41:14.755Z,100617.75
2022-07-28T03:42:20.242Z,100619.41
2022-07-28T03:43:25.661Z,100618.30
2022-07-28T03:44:29.427Z,100617.72
2022-07-28T03:45:32.665Z,100615.78
2022-07-28T03:46:35.939Z,100626.59
2022-07-28T03:47:39.164Z,100628.78
2022-07-28T03:48:42.457Z,100623.80
2022-07-28T03:49:45.699Z,100626.30
2022-07-28T03:50:48.809Z,100627.64
2022-07-28T03:51:51.907Z,100627.09
2022-07-28T03:52:56.195Z,100627.61
2022-07-28T03:53:59.270Z,100623.73
2022-07-28T03:55:02.275Z,100618.73
2022-07-28T03:56:05.793Z,100621.52
2022-07-28T03:57:08.694Z,100631.19
2022-07-28T03:58:11.800Z,100633.69
2022-07-28T03:59:15.187Z,100632.58
2022-07-28T04:00:20.455Z,100627.86
2022-07-28T04:01:23.820Z,100632.81
2022-07-28T04:02:27.287Z,100632.54
2022-07-28T04:03:36.786Z,100633.37
2022-07-28T04:04:35.425Z,100629.48
2022-07-28T04:05:38.418Z,100636.11
2022-07-28T04:06:41.510Z,100636.11
2022-07-28T04:07:48.228Z,100633.06
2022-07-28T04:08:51.251Z,100634.41
2022-07-28T04:09:54.311Z,100630.80
2022-07-28T04:10:57.608Z,100633.86
2022-07-28T04:12:00.660Z,100629.97
2022-07-28T04:13:03.675Z,100636.04
2022-07-28T04:14:06.594Z,100631.33
2022-07-28T04:15:14.990Z,100625.48
2022-07-28T04:16:18.595Z,100639.09
2022-07-28T04:17:21.626Z,100638.78
2022-07-28T04:18:24.787Z,100631.00
2022-07-28T04:19:27.911Z,100627.95
2022-07-28T04:20:31.818Z,100627.67
2022-07-28T04:21:34.876Z,100632.94
2022-07-28T04:22:38.146Z,100633.17
2022-07-28T04:23:41.169Z,100630.13
2022-07-28T04:24:44.066Z,100625.95
2022-07-28T04:25:47.024Z,100625.64
2022-07-28T04:26:50.134Z,100628.97
2022-07-28T04:27:53.814Z,100626.73
2022-07-28T04:28:56.770Z,100629.20
2022-07-28T04:29:59.730Z,100628.09
2022-07-28T04:31:02.799Z,100630.59
2022-07-28T04:32:05.947Z,100631.14
2022-07-28T04:33:08.999Z,100630.54
2022-07-28T04:34:14.154Z,100628.59
2022-07-28T04:35:18.897Z,100621.65
2022-07-28T04:36:23.185Z,100629.66
2022-07-28T04:37:26.847Z,100623.55
2022-07-28T04:38:31.649Z,100631.56
2022-07-28T04:39:35.112Z,100624.61
2022-07-28T04:40:38.473Z,100625.96
2022-07-28T04:41:41.672Z,100626.51
2022-07-28T04:42:44.850Z,100617.06
2022-07-28T04:43:48.089Z,100619.23
2022-07-28T04:44:51.051Z,100618.12
2022-07-28T04:45:54.625Z,100619.79
2022-07-28T04:46:57.898Z,100623.11
2022-07-28T04:48:02.127Z,100615.30
2022-07-28T04:49:05.373Z,100628.91
2022-07-28T04:50:10.340Z,100626.67
2022-07-28T04:51:13.618Z,100629.14
2022-07-28T04:52:16.607Z,100624.13
2022-07-28T04:53:19.851Z,100629.40
2022-07-28T04:54:26.588Z,100627.14
2022-07-28T04:55:27.786Z,100628.52
2022-07-28T04:56:32.050Z,100625.13
2022-07-28T04:57:35.741Z,100634.02
2022-07-28T04:58:39.618Z,100632.62
2022-07-28T04:59:42.668Z,100633.13
2022-07-28T05:00:47.813Z,100630.90
2022-07-28T05:01:51.438Z,100631.45
2022-07-28T05:02:56.743Z,100625.31
2022-07-28T05:03:59.820Z,100637.78
2022-07-28T05:05:02.900Z,100632.77
2022-07-28T05:06:06.083Z,100626.09
2022-07-28T05:07:12.579Z,100630.53
2022-07-28T05:08:13.851Z,100638.55
2022-07-28T05:09:17.221Z,100635.48
2022-07-28T05:10:20.664Z,100641.59
2022-07-28T05:11:23.840Z,100632.94
2022-07-28T05:12:26.729Z,100640.16
2022-07-28T05:13:34.017Z,100637.92
2022-07-28T05:14:34.877Z,100642.05
2022-07-28T05:15:37.742Z,100637.86
2022-07-28T05:16:41.021Z,100647.87
2022-07-28T05:17:45.345Z,100646.44
2022-07-28T05:18:48.329Z,100646.15
2022-07-28T05:19:51.225Z,100644.73
2022-07-28T05:20:55.638Z,100641.64
2022-07-28T05:21:58.743Z,100641.90
2022-07-28T05:23:03.521Z,100639.34
2022-07-28T05:24:07.364Z,100646.28
2022-07-28T05:25:19.094Z,100644.00
2022-07-28T05:26:22.680Z,100645.09
2022-07-28T05:27:25.563Z,100643.36
2022-07-28T05:28:28.752Z,100638.31
2022-07-28T05:29:46.666Z,100647.20
2022-07-28T05:30:37.712Z,100650.20
2022-07-28T05:31:40.761Z,100639.62
2022-07-28T05:32:48.616Z,100639.83
2022-07-28T05:33:51.922Z,100642.87
2022-07-28T05:34:55.305Z,100633.08
2022-07-28T05:35:58.426Z,100638.09
2022-07-28T05:37:02.227Z,100637.77
2022-07-28T05:38:10.507Z,100636.36
2022-07-28T05:39:10.667Z,100636.07
2022-07-28T05:40:15.824Z,100633.80
2022-07-28T05:41:19.479Z,100637.95
2022-07-28T05:42:22.802Z,100640.13
2022-07-28T05:43:25.691Z,100649.55
2022-07-28T05:44:28.663Z,100649.55
2022-07-28T05:45:33.489Z,100648.11
2022-07-28T05:46:36.655Z,100647.52
2022-07-28T05:47:48.089Z,100646.91
2022-07-28T05:48:52.395Z,100649.11
2022-07-28T05:50:00.633Z,100640.97
2022-07-28T05:51:03.801Z,100648.70
2022-07-28T05:52:06.792Z,100645.34
2022-07-28T05:53:09.968Z,100648.34
2022-07-28T05:54:13.929Z,100647.75
2022-07-28T05:55:18.057Z,100651.04
2022-07-28T05:56:22.539Z,100649.63
2022-07-28T05:57:25.514Z,100652.08
2022-07-28T05:58:30.032Z,100647.88
2022-07-28T05:59:33.011Z,100652.03
2022-07-28T06:00:36.098Z,100651.70
2022-07-28T06:01:39.182Z,100653.91
2022-07-28T06:02:45.188Z,100655.23
2022-07-28T06:04:03.481Z,100653.82
2022-07-28T06:04:56.603Z,100651.54
2022-07-28T06:06:14.711Z,100653.77
2022-07-28T06:07:04.487Z,100656.77
2022-07-28T06:08:07.846Z,100650.89
2022-07-28T06:09:13.180Z,100646.69
2022-07-28T06:10:20.053Z,100656.67
2022-07-28T06:11:23.246Z,100653.30
2022-07-28T06:12:26.132Z,100658.58
2022-07-28T06:13:29.310Z,100655.47
2022-07-28T06:14:32.152Z,100656.50
2022-07-28T06:15:35.371Z,100660.66
2022-07-28T06:16:38.493Z,100662.02
2022-07-28T06:17:42.241Z,100656.11
2022-07-28T06:18:45.528Z,100651.08
2022-07-28T06:19:48.612Z,100657.98
2022-07-28T06:20:51.703Z,100650.15
2022-07-28T06:21:54.674Z,100656.27
2022-07-28T06:22:57.753Z,100652.02
2022-07-28T06:24:00.862Z,100651.42
2022-07-28T06:25:04.382Z,100662.25
2022-07-28T06:26:07.819Z,100653.28
2022-07-28T06:27:11.034Z,100658.56
2022-07-28T06:28:14.009Z,100659.06
2022-07-28T06:29:18.182Z,100650.10
2022-07-28T06:30:22.301Z,100649.77
2022-07-28T06:31:25.443Z,100651.13
2022-07-28T06:32:28.438Z,100649.70
2022-07-28T06:33:31.397Z,100651.03
2022-07-28T06:34:34.634Z,100651.57
2022-07-28T06:35:45.282Z,100648.15
2022-07-28T06:36:43.159Z,100651.47
2022-07-28T06:37:47.414Z,100653.96
2022-07-28T06:38:50.339Z,100650.87
2022-07-28T06:39:53.189Z,100653.06
2022-07-28T06:40:57.010Z,100652.73
2022-07-28T06:42:00.142Z,100653.26
2022-07-28T06:43:03.917Z,100651.00
2022-07-28T06:44:08.631Z,100657.08
2022-07-28T06:45:19.575Z,100658.44
2022-07-28T06:46:19.180Z,100655.64
2022-07-28T06:47:22.769Z,100654.72
2022-07-28T06:48:29.041Z,100659.66
2022-07-28T06:49:30.898Z,100661.02
2022-07-28T06:50:34.108Z,100656.80
2022-07-28T06:51:38.322Z,100651.41
2022-07-28T06:52:41.865Z,100658.31
2022-07-28T06:53:47.211Z,100656.05
2022-07-28T06:54:51.160Z,100649.05
2022-07-28T06:55:55.166Z,100650.67
2022-07-28T06:57:00.304Z,100652.86
2022-07-28T06:58:04.531Z,100653.38
2022-07-28T06:59:07.621Z,100660.29
2022-07-28T07:00:13.667Z,100644.90
2022-07-28T07:01:16.713Z,100649.02
2022-07-28T07:02:22.841Z,100652.33
2022-07-28T07:03:25.073Z,100650.86
2022-07-28T07:04:29.007Z,100655.02
2022-07-28T07:05:32.809Z,100645.17
2022-07-28T07:06:36.214Z,100652.41
2022-07-28T07:07:42.974Z,100654.59
2022-07-28T07:08:44.169Z,100657.88
2022-07-28T07:09:47.219Z,100648.09
2022-07-28T07:10:50.281Z,100653.87
2022-07-28T07:11:53.788Z,100650.78
2022-07-28T07:12:56.761Z,100657.69
2022-07-28T07:14:02.503Z,100656.25
2022-07-28T07:15:06.168Z,100657.60
2022-07-28T07:16:09.796Z,100663.68
2022-07-28T07:17:13.099Z,100664.20
2022-07-28T07:18:16.096Z,100657.14
2022-07-28T07:19:20.299Z,100654.88
2022-07-28T07:20:24.022Z,100659.02
2022-07-28T07:21:27.497Z,100652.79
2022-07-28T07:22:30.571Z,100658.07
2022-07-28T07:23:34.879Z,100654.33
2022-07-28T07:24:38.002Z,100656.81
2022-07-28T07:25:41.074Z,100654.20
2022-07-28T07:26:44.280Z,100657.19
2022-07-28T07:27:47.639Z,100649.33
2022-07-28T07:28:50.630Z,100657.06
2022-07-28T07:29:53.523Z,100654.48
2022-07-28T07:30:56.778Z,100655.80
2022-07-28T07:31:59.949Z,100655.49
2022-07-28T07:33:03.135Z,100654.05
2022-07-28T07:34:08.048Z,100654.23
2022-07-28T07:35:11.808Z,100655.23
2022-07-28T07:36:15.929Z,100654.10
2022-07-28T07:37:20.730Z,100653.48
2022-07-28T07:38:28.842Z,100645.62
2022-07-28T07:39:28.770Z,100645.62
2022-07-28T07:40:33.564Z,100645.80
2022-07-28T07:41:36.655Z,100648.80
2022-07-28T07:42:41.367Z,100648.15
2022-07-28T07:43:48.025Z,100654.27
2022-07-28T07:44:51.432Z,100649.19
2022-07-28T07:45:54.521Z,100652.78
2022-07-28T07:46:57.874Z,100650.20
2022-07-28T07:48:02.137Z,100645.92
2022-07-28T07:49:05.895Z,100653.69
2022-07-28T07:50:10.006Z,100651.06
2022-07-28T07:51:15.469Z,100647.64
2022-07-28T07:52:17.758Z,100654.24
2022-07-28T07:53:22.318Z,100650.79
2022-07-28T07:54:25.318Z,100646.54
2022-07-28T07:55:28.247Z,100657.91
2022-07-28T07:56:34.319Z,100647.23
2022-07-28T07:57:37.544Z,100651.03
2022-07-28T07:58:40.730Z,100645.60
2022-07-28T07:59:43.795Z,100653.38
2022-07-28T08:00:47.169Z,100655.52
2022-07-28T08:01:52.137Z,100652.12
2022-07-28T08:02:55.432Z,100647.00
2022-07-28T08:04:00.260Z,100650.32
2022-07-28T08:05:04.744Z,100648.86
2022-07-28T08:06:08.506Z,100645.41
2022-07-28T08:07:11.612Z,100637.52
2022-07-28T08:08:15.305Z,100648.38
2022-07-28T08:09:19.082Z,100645.26
2022-07-28T08:10:22.573Z,100636.55
2022-07-28T08:11:25.504Z,100641.00
2022-07-28T08:12:28.546Z,100638.69
2022-07-28T08:13:31.649Z,100642.00
2022-07-28T08:14:34.876Z,100638.05
2022-07-28T08:15:37.862Z,100644.97
2022-07-28T08:16:42.748Z,100642.67
2022-07-28T08:17:45.887Z,100647.61
2022-07-28T08:18:48.864Z,100638.58
2022-07-28T08:19:51.954Z,100634.30
2022-07-28T08:20:55.199Z,100633.66
2022-07-28T08:21:58.599Z,100631.85
2022-07-28T08:23:01.844Z,100636.47
2022-07-28T08:24:05.376Z,100633.86
2022-07-28T08:25:08.827Z,100629.25
2022-07-28T08:26:12.244Z,100634.41
2022-07-28T08:27:15.245Z,100626.33
2022-07-28T08:28:18.254Z,100634.25
2022-07-28T08:29:22.799Z,100636.57
2022-07-28T08:30:32.025Z,100638.06
2022-07-28T08:31:31.508Z,100631.47
2022-07-28T08:32:36.300Z,100639.39
2022-07-28T08:33:53.370Z,100634.45
2022-07-28T08:34:44.215Z,100635.43
2022-07-28T08:35:48.639Z,100638.89
2022-07-28T08:36:53.265Z,100651.09
2022-07-28T08:37:56.547Z,100641.71
2022-07-28T08:39:00.396Z,100637.76
2022-07-28T08:40:04.565Z,100637.11
2022-07-28T08:41:11.034Z,100639.92
2022-07-28T08:42:20.680Z,100648.33
2022-07-28T08:43:36.287Z,100649.48
2022-07-28T08:44:49.157Z,100641.39
2022-07-28T08:45:57.776Z,100645.16
2022-07-28T08:46:58.798Z,100642.20
2022-07-28T08:48:09.203Z,100638.89
2022-07-28T08:49:09.853Z,100640.39
2022-07-28T08:50:14.159Z,100639.06
2022-07-28T08:51:36.436Z,100639.73
2022-07-28T08:52:40.426Z,100639.23
2022-07-28T08:53:43.512Z,100646.30
2022-07-28T08:54:47.963Z,100654.23
2022-07-28T08:55:51.292Z,100657.36
2022-07-28T08:56:55.283Z,100652.90
2022-07-28T08:57:59.570Z,100651.24
2022-07-28T08:59:03.099Z,100652.42
2022-07-28T09:00:08.043Z,100650.45
2022-07-28T09:01:11.605Z,100650.45
2022-07-28T09:02:15.561Z,100650.09
2022-07-28T09:03:18.911Z,100646.97
2022-07-28T09:04:22.950Z,100645.00
2022-07-28T09:05:26.339Z,100644.68
2022-07-28T09:06:31.266Z,100642.34
2022-07-28T09:07:37.477Z,100631.64
2022-07-28T09:08:40.686Z,100639.73
2022-07-28T09:09:50.531Z,100641.86
2022-07-28T09:10:54.209Z,100637.08
2022-07-28T09:11:57.819Z,100638.39
2022-07-28T09:13:00.821Z,100643.34
2022-07-28T09:14:04.557Z,100640.70
2022-07-28T09:15:09.974Z,100648.11
2022-07-28T09:16:14.841Z,100643.55
2022-07-28T09:17:18.042Z,100641.41
2022-07-28T09:18:21.182Z,100634.47
2022-07-28T09:19:24.270Z,100641.56
2022-07-28T09:20:31.190Z,100643.00
2022-07-28T09:21:34.612Z,100638.05
2022-07-28T09:22:55.911Z,100638.38
2022-07-28T09:24:00.086Z,100642.33
2022-07-28T09:25:03.559Z,100636.67
2022-07-28T09:26:12.811Z,100639.83
2022-07-28T09:27:16.168Z,100643.42
2022-07-28T09:28:20.143Z,100635.31
2022-07-28T09:29:24.661Z,100636.45
2022-07-28T09:30:31.641Z,100639.20
2022-07-28T09:31:34.752Z,100634.36
2022-07-28T09:32:38.539Z,100642.76
2022-07-28T09:33:47.914Z,100639.09
2022-07-28T09:34:52.091Z,100640.22
2022-07-28T09:35:57.230Z,100640.98
2022-07-28T09:37:00.992Z,100641.77
2022-07-28T09:38:04.036Z,100639.21
2022-07-28T09:39:07.909Z,100646.28
2022-07-28T09:40:12.716Z,100641.28
2022-07-28T09:41:17.626Z,100642.27
2022-07-28T09:42:21.224Z,100636.28
2022-07-28T09:43:43.982Z,100639.91
2022-07-28T09:45:24.598Z,100636.28
2022-07-28T09:46:19.096Z,100638.14
2022-07-28T09:47:24.062Z,100628.39
2022-07-28T09:48:27.637Z,100635.53
2022-07-28T09:49:43.051Z,100636.69
2022-07-28T09:50:46.915Z,100629.78
2022-07-28T09:52:01.076Z,100635.58
2022-07-28T09:53:27.665Z,100637.43
2022-07-28T09:54:30.843Z,100637.14
2022-07-28T09:55:37.496Z,100637.70
2022-07-28T09:56:43.502Z,100635.55
2022-07-28T09:57:46.596Z,100640.22
2022-07-28T09:58:57.500Z,100631.98
2022-07-28T10:00:02.537Z,100637.11
2022-07-28T10:01:11.604Z,100638.10
2022-07-28T10:02:18.866Z,100649.20
2022-07-28T10:03:26.311Z,100643.42
2022-07-28T10:04:34.789Z,100641.30
2022-07-28T10:05:40.966Z,100640.47
2022-07-28T10:06:44.071Z,100642.78
2022-07-28T10:07:50.116Z,100638.36
2022-07-28T10:08:54.742Z,100646.42
2022-07-28T10:10:00.759Z,100645.59
2022-07-28T10:11:03.902Z,100649.59
2022-07-28T10:12:22.765Z,100642.31
2022-07-28T10:13:25.896Z,100639.84
2022-07-28T10:14:32.704Z,100629.30
2022-07-28T10:15:54.455Z,100625.98
2022-07-28T10:17:04.181Z,100631.11
2022-07-28T10:18:05.653Z,100626.65
2022-07-28T10:19:09.289Z,100626.19
2022-07-28T10:20:12.670Z,100626.19
2022-07-28T10:21:18.075Z,100635.43
2022-07-28T10:22:24.651Z,100635.77
2022-07-28T10:23:28.478Z,100638.43
2022-07-28T10:24:35.298Z,100636.28
2022-07-28T10:25:39.904Z,100639.77
2022-07-28T10:26:44.929Z,100636.00
2022-07-28T10:27:48.672Z,100635.50
2022-07-28T10:28:53.584Z,100639.78
2022-07-28T10:29:58.900Z,100638.16
2022-07-28T10:31:04.601Z,100635.69
2022-07-28T10:32:07.726Z,100636.52
2022-07-28T10:33:16.663Z,100639.31
2022-07-28T10:34:32.064Z,100636.16
2022-07-28T10:35:54.500Z,100633.02
2022-07-28T10:36:43.127Z,100631.53
2022-07-28T10:38:01.797Z,100627.22
2022-07-28T10:39:13.794Z,100634.16
2022-07-28T10:40:20.210Z,100635.12
2022-07-28T10:41:26.373Z,100634.80
2022-07-28T10:42:32.030Z,100629.32
2022-07-28T10:43:36.694Z,100633.09
2022-07-28T10:44:42.985Z,100634.41
2022-07-28T10:46:53.208Z,100628.61
2022-07-28T10:47:56.958Z,100631.91
2022-07-28T10:49:03.581Z,100633.20
2022-07-28T10:50:07.996Z,100630.56
2022-07-28T10:51:11.745Z,100629.38
2022-07-28T10:52:45.885Z,100627.39
2022-07-28T10:53:32.108Z,100630.70
2022-07-28T10:54:41.028Z,100630.37
2022-07-28T10:55:59.467Z,100634.80
2022-07-28T10:57:05.651Z,100630.00
2022-07-28T10:58:33.176Z,100630.83
2022-07-28T11:00:11.875Z,100633.31
2022-07-28T11:01:06.678Z,100622.08
2022-07-28T11:02:30.566Z,100636.64
2022-07-28T11:03:39.513Z,100623.43
2022-07-28T11:04:51.082Z,100627.03
2022-07-28T11:05:54.117Z,100631.03
2022-07-28T11:07:11.803Z,100624.88
2022-07-28T11:08:19.968Z,100628.84
2022-07-28T11:09:23.349Z,100632.34
2022-07-28T11:10:28.314Z,100624.58
2022-07-28T11:11:54.176Z,100629.73
2022-07-28T11:12:58.396Z,100629.57
2022-07-28T11:14:24.678Z,100630.26
2022-07-28T11:15:36.028Z,100628.11
2022-07-28T11:16:39.210Z,100629.95
2022-07-28T11:17:46.273Z,100635.43
2022-07-28T11:19:07.764Z,100632.12
2022-07-28T11:20:16.908Z,100632.81
2022-07-28T11:21:17.521Z,100637.11
2022-07-28T11:22:24.295Z,100633.00
2022-07-28T11:23:49.559Z,100633.66
2022-07-28T11:25:19.913Z,100634.34
2022-07-28T11:26:32.240Z,100633.02
2022-07-28T11:27:49.190Z,100630.54
2022-07-28T11:29:06.089Z,100623.30
2022-07-28T11:30:11.483Z,100623.77
2022-07-28T11:31:14.615Z,100629.88
2022-07-28T11:32:17.866Z,100616.81
2022-07-28T11:33:22.060Z,100618.97
2022-07-28T11:34:26.286Z,100627.86
2022-07-28T11:35:31.465Z,100625.55
2022-07-28T11:37:15.085Z,100624.86
2022-07-28T11:38:17.606Z,100625.36
2022-07-28T11:39:24.846Z,100625.16
2022-07-28T11:40:33.480Z,100621.34
2022-07-28T11:41:37.326Z,100621.97
2022-07-28T11:42:42.310Z,100619.80
2022-07-28T11:43:46.015Z,100616.45
2022-07-28T11:44:49.090Z,100618.77
2022-07-28T11:46:09.803Z,100622.20
2022-07-28T11:47:18.590Z,100616.39
2022-07-28T11:48:23.004Z,100618.17
2022-07-28T11:49:27.041Z,100617.14
2022-07-28T11:50:31.437Z,100620.91
2022-07-28T11:51:38.825Z,100617.77
2022-07-28T11:52:42.432Z,100616.27
2022-07-28T11:53:47.760Z,100603.87
2022-07-28T11:54:52.756Z,100609.95
2022-07-28T11:56:02.688Z,100611.27
2022-07-28T11:57:02.009Z,100611.73
2022-07-28T11:58:06.618Z,100609.91
2022-07-28T11:59:10.809Z,100608.38
2022-07-28T12:00:21.543Z,100614.16
2022-07-28T12:01:26.696Z,100607.01
2022-07-28T12:02:31.689Z,100607.95
2022-07-28T12:03:38.477Z,100605.33
2022-07-28T12:04:40.099Z,100607.78
2022-07-28T12:05:47.729Z,100603.80
2022-07-28T12:06:52.037Z,100611.91
2022-07-28T12:07:56.928Z,100605.95
2022-07-28T12:09:02.984Z,100608.39
2022-07-28T12:10:51.916Z,100603.25
2022-07-28T12:11:37.120Z,100605.24
2022-07-28T12:12:40.343Z,100601.76
2022-07-28T12:13:43.910Z,100606.19
2022-07-28T12:14:46.987Z,100606.19
2022-07-28T12:15:50.739Z,100602.58
2022-07-28T12:16:53.883Z,100604.20
2022-07-28T12:17:58.780Z,100603.37
2022-07-28T12:19:03.713Z,100599.28
2022-07-28T12:20:14.054Z,100601.61
2022-07-28T12:21:14.688Z,100603.96
2022-07-28T12:22:23.104Z,100597.52
2022-07-28T12:23:45.365Z,100600.32
2022-07-28T12:24:44.646Z,100609.92
2022-07-28T12:25:50.337Z,100604.30
2022-07-28T12:26:54.563Z,100601.48
2022-07-28T12:28:04.139Z,100603.13
2022-07-28T12:29:14.466Z,100593.88
2022-07-28T12:30:25.520Z,100603.96
2022-07-28T12:31:32.547Z,100601.48
2022-07-28T12:32:37.502Z,100598.18
2022-07-28T12:33:43.654Z,100600.53
2022-07-28T12:34:48.743Z,100598.39
2022-07-28T12:35:58.321Z,100603.52